createdAt,value
2023-03-17T00:01:51.638Z,100.00
2023-03-17T00:04:19.644Z,100.00
2023-03-17T00:06:47.664Z,100.00
2023-03-17T00:09:18.912Z,100.00
2023-03-17T00:11:47.263Z,100.00
2023-03-17T00:14:14.758Z,100.00
2023-03-17T00:16:44.467Z,100.00
2023-03-17T00:19:17.279Z,100.00
2023-03-17T00:21:46.130Z,100.00
2023-03-17T00:24:15.060Z,100.00
2023-03-17T00:26:43.464Z,100.00
2023-03-17T00:29:10.930Z,100.00
2023-03-17T00:31:39.673Z,100.00
2023-03-17T00:34:08.176Z,100.00
2023-03-17T00:36:36.045Z,100.00
2023-03-17T00:39:06.563Z,100.00
2023-03-17T00:41:33.836Z,100.00
2023-03-17T00:44:00.757Z,100.00
2023-03-17T00:46:36.085Z,100.00
2023-03-17T00:49:12.282Z,100.00
2023-03-17T00:51:39.497Z,100.00
2023-03-17T00:54:07.027Z,100.00
2023-03-17T00:56:34.219Z,100.00
2023-03-17T00:59:01.576Z,100.00
2023-03-17T01:01:28.733Z,100.00
2023-03-17T01:03:56.688Z,100.00
2023-03-17T01:06:24.018Z,100.00
2023-03-17T01:08:51.160Z,100.00
2023-03-17T01:11:21.603Z,100.00
2023-03-17T01:13:48.491Z,100.00
2023-03-17T01:16:15.887Z,100.00
2023-03-17T01:18:43.658Z,100.00
2023-03-17T01:21:11.049Z,100.00
2023-03-17T01:23:38.075Z,100.00
2023-03-17T01:26:06.699Z,100.00
2023-03-17T01:28:34.626Z,100.00
2023-03-17T01:31:02.870Z,100.00
2023-03-17T01:33:29.830Z,100.00
2023-03-17T01:35:57.601Z,100.00
2023-03-17T01:38:24.825Z,100.00
2023-03-17T01:40:52.390Z,100.00
2023-03-17T01:43:30.888Z,100.00
2023-03-17T01:46:22.456Z,100.00
2023-03-17T01:49:10.651Z,100.00
2023-03-17T01:51:51.495Z,100.00
2023-03-17T01:54:43.028Z,100.00
2023-03-17T01:57:18.938Z,100.00
2023-03-17T01:59:52.513Z,100.00
2023-03-17T02:02:24.948Z,100.00
2023-03-17T02:04:52.507Z,100.00
2023-03-17T02:07:22.247Z,100.00
2023-03-17T02:09:49.726Z,100.00
2023-03-17T02:12:16.980Z,100.00
2023-03-17T02:14:44.304Z,100.00
2023-03-17T02:17:11.623Z,100.00
2023-03-17T02:19:39.028Z,100.00
2023-03-17T02:22:06.632Z,100.00
2023-03-17T02:24:37.987Z,100.00
2023-03-17T02:27:13.058Z,100.00
2023-03-17T02:29:40.509Z,100.00
2023-03-17T02:32:08.055Z,100.00
2023-03-17T02:34:34.955Z,100.00
2023-03-17T02:37:02.224Z,100.00
2023-03-17T02:39:29.146Z,100.00
2023-03-17T02:41:56.814Z,100.00
2023-03-17T02:44:24.237Z,100.00
2023-03-17T02:46:51.957Z,100.00
2023-03-17T02:49:19.428Z,100.00
2023-03-17T02:51:47.611Z,100.00
2023-03-17T02:54:14.584Z,100.00
2023-03-17T02:56:42.085Z,100.00
2023-03-17T02:59:09.797Z,100.00
2023-03-17T03:01:38.916Z,100.00
2023-03-17T03:04:07.288Z,100.00
2023-03-17T03:06:34.826Z,100.00
2023-03-17T03:09:02.005Z,100.00
2023-03-17T03:11:29.492Z,100.00
2023-03-17T03:13:56.422Z,100.00
2023-03-17T03:16:23.642Z,100.00
2023-03-17T03:18:50.643Z,100.00
2023-03-17T03:21:17.878Z,100.00
2023-03-17T03:23:44.840Z,100.00
2023-03-17T03:26:12.240Z,100.00
2023-03-17T03:28:39.432Z,100.00
2023-03-17T03:31:07.554Z,100.00
2023-03-17T03:33:35.017Z,100.00
2023-03-17T03:36:02.472Z,100.00
2023-03-17T03:38:29.773Z,100.00
2023-03-17T03:40:57.021Z,100.00
2023-03-17T03:43:24.305Z,100.00
2023-03-17T03:45:52.248Z,100.00
2023-03-17T03:48:19.232Z,100.00
2023-03-17T03:50:46.688Z,100.00
2023-03-17T03:53:14.383Z,100.00
2023-03-17T03:55:41.835Z,100.00
2023-03-17T03:58:08.987Z,100.00
2023-03-17T04:00:37.302Z,100.00
2023-03-17T04:03:04.427Z,100.00
2023-03-17T04:05:31.897Z,100.00
2023-03-17T04:07:58.814Z,100.00
2023-03-17T04:10:26.628Z,100.00
2023-03-17T04:12:53.671Z,100.00
2023-03-17T04:15:21.254Z,100.00
2023-03-17T04:17:48.124Z,100.00
2023-03-17T04:20:16.501Z,100.00
2023-03-17T04:22:44.274Z,100.00
2023-03-17T04:25:14.583Z,100.00
2023-03-17T04:27:43.027Z,100.00
2023-03-17T04:30:17.077Z,100.00
2023-03-17T04:32:44.979Z,100.00
2023-03-17T04:35:18.387Z,100.00
2023-03-17T04:37:46.000Z,100.00
2023-03-17T04:40:14.120Z,100.00
2023-03-17T04:42:41.113Z,100.00
2023-03-17T04:45:11.313Z,100.00
2023-03-17T04:47:38.654Z,100.00
2023-03-17T04:50:08.147Z,100.00
2023-03-17T04:52:36.848Z,100.00
2023-03-17T04:55:05.829Z,100.00
2023-03-17T04:57:32.977Z,100.00
2023-03-17T05:00:00.365Z,100.00
2023-03-17T05:02:27.433Z,100.00
2023-03-17T05:04:54.731Z,100.00
2023-03-17T05:07:21.781Z,100.00
2023-03-17T05:09:49.079Z,100.00
2023-03-17T05:12:16.036Z,100.00
2023-03-17T05:14:43.331Z,100.00
2023-03-17T05:17:10.315Z,100.00
2023-03-17T05:19:37.572Z,100.00
2023-03-17T05:22:04.489Z,100.00
2023-03-17T05:24:31.663Z,100.00
2023-03-17T05:26:58.536Z,100.00
2023-03-17T05:29:25.837Z,100.00
2023-03-17T05:31:52.769Z,100.00
2023-03-17T05:34:20.332Z,100.00
2023-03-17T05:36:47.220Z,100.00
2023-03-17T05:39:14.754Z,100.00
2023-03-17T05:41:41.716Z,100.00
2023-03-17T05:44:08.969Z,97.81
2023-03-17T05:46:35.900Z,95.87
2023-03-17T05:49:03.807Z,92.85
2023-03-17T05:51:30.729Z,91.09
2023-03-17T05:53:58.475Z,88.93
2023-03-17T05:56:26.943Z,89.90
2023-03-17T05:58:54.240Z,87.24
2023-03-17T06:01:21.181Z,81.63
2023-03-17T06:03:50.131Z,82.35
2023-03-17T06:06:17.081Z,80.80
2023-03-17T06:08:44.756Z,76.15
2023-03-17T06:11:12.863Z,72.79
2023-03-17T06:13:40.124Z,73.42
2023-03-17T06:16:07.818Z,74.35
2023-03-17T06:18:35.883Z,75.19
2023-03-17T06:21:02.732Z,73.32
2023-03-17T06:23:29.892Z,70.98
2023-03-17T06:25:57.113Z,73.13
2023-03-17T06:28:24.280Z,71.76
2023-03-17T06:30:51.309Z,62.07
2023-03-17T06:33:19.269Z,60.14
2023-03-17T06:35:46.915Z,57.81
2023-03-17T06:38:14.144Z,61.61
2023-03-17T06:40:41.550Z,64.81
2023-03-17T06:43:09.342Z,60.18
2023-03-17T06:45:36.253Z,55.53
2023-03-17T06:48:03.730Z,56.92
2023-03-17T06:50:30.954Z,58.52
2023-03-17T06:52:58.215Z,56.10
2023-03-17T06:55:25.297Z,53.42
2023-03-17T06:57:52.642Z,50.94
2023-03-17T07:00:21.215Z,51.98
2023-03-17T07:02:49.712Z,47.00
2023-03-17T07:05:16.738Z,45.45
2023-03-17T07:07:44.586Z,47.26
2023-03-17T07:10:13.835Z,47.49
2023-03-17T07:12:41.442Z,46.17
2023-03-17T07:15:09.381Z,45.39
2023-03-17T07:17:36.571Z,41.80
2023-03-17T07:20:03.776Z,40.61
2023-03-17T07:22:31.092Z,38.71
2023-03-17T07:24:58.154Z,36.36
2023-03-17T07:27:26.561Z,36.08
2023-03-17T07:29:53.709Z,34.88
2023-03-17T07:32:21.174Z,34.99
2023-03-17T07:34:48.086Z,32.16
2023-03-17T07:37:15.458Z,31.23
2023-03-17T07:39:42.695Z,31.15
2023-03-17T07:42:15.405Z,31.25
2023-03-17T07:44:42.298Z,31.68
2023-03-17T07:47:11.459Z,30.79
2023-03-17T07:49:41.962Z,30.86
2023-03-17T07:52:11.250Z,29.10
2023-03-17T07:54:42.273Z,29.54
2023-03-17T07:57:11.603Z,28.84
2023-03-17T07:59:40.041Z,28.08
2023-03-17T08:02:07.544Z,28.01
2023-03-17T08:04:35.805Z,27.21
2023-03-17T08:07:03.311Z,28.02
2023-03-17T08:09:30.237Z,28.11
2023-03-17T08:11:57.725Z,26.83
2023-03-17T08:14:24.968Z,26.45
2023-03-17T08:16:54.250Z,25.65
2023-03-17T08:19:22.153Z,26.07
2023-03-17T08:21:49.339Z,24.96
2023-03-17T08:24:16.633Z,23.98
2023-03-17T08:26:44.026Z,23.54
2023-03-17T08:29:10.964Z,24.07
2023-03-17T08:31:38.271Z,25.11
2023-03-17T08:34:05.298Z,25.65
2023-03-17T08:36:32.552Z,25.22
2023-03-17T08:38:59.426Z,26.18
2023-03-17T08:41:28.345Z,26.92
2023-03-17T08:43:56.247Z,26.27
2023-03-17T08:46:29.264Z,26.17
2023-03-17T08:51:30.530Z,22.19
2023-03-17T08:54:01.317Z,24.53
2023-03-17T08:56:28.921Z,24.19
2023-03-17T08:58:56.441Z,24.17
2023-03-17T09:01:24.631Z,24.42
2023-03-17T09:03:53.507Z,25.44
2023-03-17T09:06:21.413Z,27.66
2023-03-17T09:08:55.355Z,28.94
2023-03-17T09:11:26.162Z,28.89
2023-03-17T09:13:53.808Z,27.48
2023-03-17T09:16:23.307Z,27.81
2023-03-17T09:18:50.377Z,29.59
2023-03-17T09:21:17.968Z,29.03
2023-03-17T09:23:44.847Z,27.29
2023-03-17T09:26:12.804Z,23.52
2023-03-17T09:28:39.933Z,25.43
2023-03-17T09:31:11.628Z,24.41
2023-03-17T09:33:40.698Z,23.38
2023-03-17T09:36:08.876Z,23.76
2023-03-17T09:38:36.205Z,25.24
2023-03-17T09:41:36.393Z,26.43
2023-03-17T09:44:20.005Z,23.11
2023-03-17T09:47:02.579Z,24.37
2023-03-17T09:49:45.558Z,23.73
2023-03-17T09:52:16.013Z,23.57
2023-03-17T09:54:45.819Z,24.02
2023-03-17T09:57:21.295Z,24.48
2023-03-17T09:59:52.305Z,22.95
2023-03-17T10:02:27.177Z,23.96
2023-03-17T10:04:54.207Z,22.76
2023-03-17T10:07:28.689Z,23.29
2023-03-17T10:10:05.244Z,24.12
2023-03-17T10:12:54.256Z,26.60
2023-03-17T10:15:27.910Z,25.17
2023-03-17T10:17:55.452Z,25.30
2023-03-17T10:20:33.277Z,26.18
2023-03-17T10:23:08.460Z,24.63
2023-03-17T10:25:36.674Z,26.70
2023-03-17T10:28:27.687Z,27.92
2023-03-17T10:31:14.483Z,29.77
2023-03-17T10:33:42.437Z,30.72
2023-03-17T10:36:10.719Z,31.68
2023-03-17T10:38:37.992Z,31.23
2023-03-17T10:41:12.435Z,30.33
2023-03-17T10:43:48.618Z,29.58
2023-03-17T10:46:22.388Z,28.30
2023-03-17T10:48:56.579Z,24.44
2023-03-17T10:51:35.662Z,24.01
2023-03-17T10:54:11.863Z,25.06
2023-03-17T10:56:42.509Z,26.02
2023-03-17T10:59:19.513Z,26.65
2023-03-17T11:01:56.440Z,24.46
2023-03-17T11:04:35.670Z,23.70
2023-03-17T11:07:10.882Z,24.46
2023-03-17T11:09:38.163Z,23.83
2023-03-17T11:12:23.056Z,24.46
2023-03-17T11:14:50.509Z,25.50
2023-03-17T11:17:55.842Z,27.20
2023-03-17T11:20:42.236Z,25.03
2023-03-17T11:23:22.513Z,25.95
2023-03-17T11:26:02.008Z,27.06
2023-03-17T11:28:31.150Z,24.29
2023-03-17T11:31:30.171Z,24.33
2023-03-17T11:34:20.050Z,25.23
2023-03-17T11:37:16.422Z,23.99
2023-03-17T11:40:01.203Z,25.40
2023-03-17T11:43:16.397Z,27.34
2023-03-17T11:46:04.875Z,27.20
2023-03-17T11:48:57.436Z,27.15
2023-03-17T11:51:47.333Z,28.80
2023-03-17T11:54:28.854Z,30.70
2023-03-17T11:57:02.988Z,27.69
2023-03-17T11:59:42.216Z,28.69
2023-03-17T12:02:31.263Z,29.48
2023-03-17T12:05:15.881Z,27.47
2023-03-17T12:07:53.328Z,29.48
2023-03-17T12:10:31.045Z,29.22
2023-03-17T12:13:08.092Z,28.73
2023-03-17T12:15:56.859Z,28.90
2023-03-17T12:18:32.888Z,31.01
2023-03-17T12:21:23.475Z,32.04
2023-03-17T12:23:58.626Z,27.83
2023-03-17T12:26:33.607Z,26.72
2023-03-17T12:29:04.285Z,26.50
2023-03-17T12:31:35.408Z,26.79
2023-03-17T12:34:57.071Z,27.81
2023-03-17T12:37:27.768Z,30.66
2023-03-17T12:40:00.888Z,30.17
2023-03-17T12:43:21.912Z,29.73
2023-03-17T12:46:11.862Z,27.91
2023-03-17T12:49:10.321Z,29.03
2023-03-17T12:51:52.382Z,29.69
2023-03-17T12:54:29.054Z,30.30
2023-03-17T12:57:06.622Z,32.94
2023-03-17T12:59:36.386Z,33.01
2023-03-17T13:02:18.232Z,31.68
2023-03-17T13:04:58.150Z,30.19
2023-03-17T13:07:48.211Z,29.20
2023-03-17T13:10:20.851Z,29.09
2023-03-17T13:12:47.619Z,29.50
2023-03-17T13:15:36.344Z,29.76
2023-03-17T13:18:12.365Z,27.99
2023-03-17T13:20:44.961Z,28.59
2023-03-17T13:23:11.794Z,29.61
2023-03-17T13:25:41.913Z,29.39
2023-03-17T13:28:12.116Z,32.67
2023-03-17T13:30:39.478Z,33.13
2023-03-17T13:33:09.797Z,33.74
2023-03-17T13:35:42.235Z,32.14
2023-03-17T13:38:27.399Z,32.55
2023-03-17T13:41:38.252Z,32.03
2023-03-17T13:44:18.546Z,31.92
2023-03-17T13:46:48.679Z,33.94
2023-03-17T13:53:06.119Z,39.12
2023-03-17T13:55:42.146Z,37.01
2023-03-17T13:58:11.296Z,37.76
2023-03-17T14:00:46.124Z,35.61
2023-03-17T14:03:57.843Z,34.41
2023-03-17T14:06:31.391Z,35.34
2023-03-17T14:09:03.010Z,35.69
2023-03-17T14:11:36.670Z,39.47
2023-03-17T14:14:36.634Z,42.40
2023-03-17T14:17:25.307Z,41.58
2023-03-17T14:20:21.013Z,42.14
2023-03-17T14:22:57.408Z,42.82
2023-03-17T14:25:36.232Z,42.94
2023-03-17T14:28:11.170Z,42.55
2023-03-17T14:30:38.928Z,43.27
2023-03-17T14:33:12.132Z,44.47
2023-03-17T14:35:44.597Z,43.58
2023-03-17T14:38:25.432Z,45.26
2023-03-17T14:41:01.707Z,43.86
2023-03-17T14:43:29.029Z,43.80
2023-03-17T14:46:08.181Z,44.83
2023-03-17T14:48:38.125Z,43.68
2023-03-17T14:51:33.795Z,44.51
2023-03-17T14:54:04.247Z,44.48
2023-03-17T14:56:41.137Z,45.46
2023-03-17T14:59:17.276Z,45.57
2023-03-17T15:01:49.455Z,45.13
2023-03-17T15:04:34.955Z,46.52
2023-03-17T15:07:05.293Z,45.99
2023-03-17T15:09:40.743Z,46.30
2023-03-17T15:12:21.498Z,47.30
2023-03-17T15:14:52.353Z,47.31
2023-03-17T15:17:23.202Z,46.13
2023-03-17T15:19:53.819Z,46.23
2023-03-17T15:23:03.207Z,45.99
2023-03-17T15:25:43.351Z,47.47
2023-03-17T15:28:11.484Z,47.56
2023-03-17T15:30:49.990Z,46.31
2023-03-17T15:33:29.232Z,47.99
2023-03-17T15:35:57.255Z,48.23
2023-03-17T15:38:24.949Z,48.60
2023-03-17T15:40:52.474Z,49.10
2023-03-17T15:43:23.681Z,49.38
2023-03-17T15:46:07.603Z,48.42
2023-03-17T15:48:39.328Z,47.93
2023-03-17T15:51:07.349Z,47.46
2023-03-17T15:53:34.554Z,46.47
2023-03-17T15:56:01.856Z,47.13
2023-03-17T15:58:28.774Z,46.30
2023-03-17T16:00:59.920Z,46.91
2023-03-17T16:03:37.157Z,47.07
2023-03-17T16:06:13.502Z,47.90
2023-03-17T16:08:40.358Z,47.56
2023-03-17T16:11:14.755Z,47.35
2023-03-17T16:13:41.750Z,48.51
2023-03-17T16:16:16.972Z,49.35
2023-03-17T16:18:46.971Z,49.23
2023-03-17T16:21:14.502Z,50.44
2023-03-17T16:23:41.578Z,50.64
2023-03-17T16:26:15.384Z,51.37
2023-03-17T16:28:44.757Z,52.24
2023-03-17T16:31:16.607Z,52.11
2023-03-17T16:33:43.559Z,52.49
2023-03-17T16:36:16.208Z,51.39
2023-03-17T16:38:43.818Z,52.09
2023-03-17T16:41:19.250Z,52.04
2023-03-17T16:43:51.201Z,52.37
2023-03-17T16:46:21.083Z,52.09
2023-03-17T16:48:49.630Z,52.41
2023-03-17T16:51:17.582Z,52.46
2023-03-17T16:53:45.312Z,52.03
2023-03-17T16:56:21.566Z,51.93
2023-03-17T16:58:48.814Z,52.12
2023-03-17T17:01:19.994Z,52.67
2023-03-17T17:03:47.713Z,52.71
2023-03-17T17:06:15.629Z,53.05
2023-03-17T17:08:46.858Z,53.77
2023-03-17T17:11:15.594Z,54.37
2023-03-17T17:13:44.613Z,54.50
2023-03-17T17:16:17.726Z,54.31
2023-03-17T17:18:44.685Z,54.31
2023-03-17T17:21:11.913Z,53.68
2023-03-17T17:23:38.853Z,53.88
2023-03-17T17:26:06.283Z,53.75
2023-03-17T17:28:33.362Z,53.93
2023-03-17T17:31:01.016Z,54.15
2023-03-17T17:33:28.017Z,54.04
2023-03-17T17:38:28.746Z,53.55
2023-03-17T17:40:57.937Z,53.21
2023-03-17T17:43:25.255Z,53.42
2023-03-17T17:45:53.174Z,52.91
2023-03-17T17:48:22.825Z,52.62
2023-03-17T17:50:51.371Z,52.38
2023-03-17T17:53:18.939Z,52.44
2023-03-17T17:55:48.493Z,52.59
2023-03-17T17:58:16.724Z,51.78
2023-03-17T18:00:44.198Z,51.91
2023-03-17T18:03:11.463Z,51.36
2023-03-17T18:05:38.973Z,51.17
2023-03-17T18:08:06.705Z,51.07
2023-03-17T18:10:34.648Z,50.95
2023-03-17T18:13:01.901Z,51.23
2023-03-17T18:15:29.233Z,50.75
2023-03-17T18:17:56.582Z,50.85
2023-03-17T18:20:24.578Z,50.37
2023-03-17T18:22:52.386Z,50.44
2023-03-17T18:25:20.310Z,50.26
2023-03-17T18:27:47.844Z,50.33
2023-03-17T18:30:23.605Z,50.22
2023-03-17T18:32:53.839Z,50.40
2023-03-17T18:35:22.862Z,50.48
2023-03-17T18:37:50.937Z,50.32
2023-03-17T18:40:19.386Z,49.99
2023-03-17T18:42:47.030Z,50.15
2023-03-17T18:45:14.728Z,49.76
2023-03-17T18:47:42.237Z,49.43
2023-03-17T18:50:12.961Z,48.92
2023-03-17T18:52:41.565Z,48.89
2023-03-17T18:55:10.289Z,49.19
2023-03-17T18:57:37.225Z,48.99
2023-03-17T19:00:07.012Z,48.58
2023-03-17T19:02:34.027Z,48.75
2023-03-17T19:05:01.621Z,48.26
2023-03-17T19:07:28.585Z,48.39
2023-03-17T19:09:55.997Z,48.91
2023-03-17T19:12:23.305Z,49.54
2023-03-17T19:14:50.614Z,49.54
2023-03-17T19:17:18.265Z,49.75
2023-03-17T19:19:45.662Z,50.31
2023-03-17T19:22:12.604Z,50.70
2023-03-17T19:24:41.231Z,50.45
2023-03-17T19:27:08.556Z,50.37
2023-03-17T19:29:35.726Z,50.85
2023-03-17T19:32:02.567Z,51.22
2023-03-17T19:34:29.760Z,51.76
2023-03-17T19:36:56.653Z,51.90
2023-03-17T19:39:23.899Z,52.07
2023-03-17T19:41:55.039Z,51.90
2023-03-17T19:44:22.588Z,52.02
2023-03-17T19:46:49.980Z,52.47
2023-03-17T19:49:17.769Z,52.35
2023-03-17T19:51:44.740Z,52.10
2023-03-17T19:54:12.914Z,51.72
2023-03-17T19:56:39.903Z,51.72
2023-03-17T19:59:07.578Z,52.01
2023-03-17T20:01:34.965Z,52.11
2023-03-17T20:04:02.243Z,52.35
2023-03-17T20:06:31.365Z,52.33
2023-03-17T20:08:58.530Z,52.87
2023-03-17T20:11:25.740Z,52.48
2023-03-17T20:13:52.934Z,52.24
2023-03-17T20:16:19.886Z,52.17
2023-03-17T20:18:47.098Z,52.05
2023-03-17T20:21:14.104Z,53.21
2023-03-17T20:23:41.422Z,53.19
2023-03-17T20:26:09.323Z,53.37
2023-03-17T20:28:36.994Z,52.97
2023-03-17T20:31:04.783Z,52.74
2023-03-17T20:33:33.538Z,52.91
2023-03-17T20:36:01.994Z,52.89
2023-03-17T20:38:31.060Z,52.77
2023-03-17T20:41:08.785Z,52.66
2023-03-17T20:43:37.505Z,52.51
2023-03-17T20:46:09.106Z,52.82
2023-03-17T20:48:37.311Z,51.90
2023-03-17T20:51:06.411Z,51.54
2023-03-17T20:53:34.491Z,52.34
2023-03-17T20:56:01.416Z,51.60
2023-03-17T20:58:29.090Z,51.90
2023-03-17T21:00:57.160Z,51.96
2023-03-17T21:03:24.460Z,51.99
2023-03-17T21:05:51.609Z,51.33
2023-03-17T21:08:19.155Z,52.01
2023-03-17T21:10:46.248Z,51.36
2023-03-17T21:13:13.465Z,51.37
2023-03-17T21:15:41.217Z,51.94
2023-03-17T21:18:09.058Z,51.73
2023-03-17T21:20:36.665Z,51.18
2023-03-17T21:23:07.930Z,51.21
2023-03-17T21:25:38.153Z,51.40
2023-03-17T21:28:05.569Z,51.59
2023-03-17T21:30:34.144Z,51.37
2023-03-17T21:33:01.651Z,52.05
2023-03-17T21:35:30.555Z,52.70
2023-03-17T21:37:57.844Z,52.37
2023-03-17T21:40:26.207Z,52.43
2023-03-17T21:42:53.577Z,52.97
2023-03-17T21:45:20.575Z,52.70
2023-03-17T21:47:48.426Z,52.36
2023-03-17T21:50:17.751Z,52.90
2023-03-17T21:52:45.644Z,52.53
2023-03-17T21:55:12.842Z,52.43
2023-03-17T21:57:40.214Z,52.71
2023-03-17T22:00:09.730Z,53.30
2023-03-17T22:02:37.199Z,53.23
2023-03-17T22:05:04.994Z,54.46
2023-03-17T22:07:33.004Z,55.03
2023-03-17T22:10:01.022Z,56.43
2023-03-17T22:12:28.816Z,57.37
2023-03-17T22:14:58.810Z,57.59
2023-03-17T22:17:26.137Z,58.53
2023-03-17T22:19:53.338Z,58.92
2023-03-17T22:22:21.221Z,59.06
2023-03-17T22:24:48.275Z,59.57
2023-03-17T22:27:17.044Z,59.39
2023-03-17T22:29:44.543Z,59.13
2023-03-17T22:32:11.819Z,59.68
2023-03-17T22:34:38.750Z,59.57
2023-03-17T22:37:07.233Z,59.75
2023-03-17T22:39:34.720Z,59.34
2023-03-17T22:42:02.188Z,59.04
2023-03-17T22:44:29.141Z,59.29
2023-03-17T22:46:56.636Z,59.54
2023-03-17T22:49:23.927Z,59.54
2023-03-17T22:51:51.150Z,59.62
2023-03-17T22:54:18.852Z,59.37
2023-03-17T22:56:46.110Z,59.23
2023-03-17T22:59:12.952Z,59.11
2023-03-17T23:01:40.352Z,59.33
2023-03-17T23:04:07.872Z,59.30
2023-03-17T23:06:36.771Z,59.09
2023-03-17T23:09:04.958Z,59.61
2023-03-17T23:11:32.400Z,59.59
2023-03-17T23:13:59.362Z,59.67
2023-03-17T23:16:27.312Z,59.76
2023-03-17T23:18:54.623Z,60.44
2023-03-17T23:21:33.783Z,59.39
2023-03-17T23:24:01.679Z,59.58
2023-03-17T23:26:29.225Z,60.30
2023-03-17T23:28:56.637Z,60.65
2023-03-17T23:31:24.803Z,60.80
2023-03-17T23:33:52.771Z,60.66
2023-03-17T23:36:20.141Z,59.71
2023-03-17T23:38:48.668Z,58.63
2023-03-17T23:41:16.448Z,57.96
2023-03-17T23:43:44.127Z,57.85
2023-03-17T23:46:13.940Z,57.51
2023-03-17T23:48:42.642Z,56.79
2023-03-17T23:51:12.172Z,55.57
2023-03-17T23:53:42.305Z,55.16
2023-03-17T23:56:11.572Z,54.82
2023-03-17T23:58:39.234Z,55.12
